Time,TemperatureF,DewpointF,PressureIn,WindDirection,WindDirectionDegrees,WindSpeedMPH,WindSpeedGustMPH,Humidity,HourlyPrecipIn,Conditions,Clouds,dailyrainin,SoftwareType,DateUTC
2013-04-07 00:02:00,49.0,27.0,29.72,ENE,74,3.0,10.0,42,-99.99,,,0.00,,2013-04-07 07:02:00,
2013-04-07 00:12:00,49.0,27.0,29.72,ENE,74,3.0,10.0,42,-99.99,,,0.00,,2013-04-07 07:12:00,
2013-04-07 00:22:00,50.0,27.0,29.70,SE,128,5.0,13.0,40,-99.99,,,0.00,,2013-04-07 07:22:00,
2013-04-07 00:32:00,50.0,27.0,29.70,SE,128,5.0,13.0,40,-99.99,,,0.00,,2013-04-07 07:32:00,
2013-04-07 00:42:00,50.0,27.0,29.70,ESE,115,2.0,13.0,41,-99.99,,,0.00,,2013-04-07 07:42:00,
2013-04-07 00:52:00,54.0,28.0,29.67,SSE,167,6.0,15.0,36,-99.99,,,0.00,,2013-04-07 07:52:00,
2013-04-07 01:02:00,52.0,27.0,29.68,SSE,150,5.0,15.0,39,-99.99,,,0.00,,2013-04-07 08:02:00,
2013-04-07 01:22:00,48.0,26.0,29.71,SSE,155,2.0,8.0,43,-99.99,,,0.00,,2013-04-07 08:22:00,
2013-04-07 01:32:00,47.0,26.0,29.71,SSE,155,3.0,8.0,45,-99.99,,,0.00,,2013-04-07 08:32:00,
2013-04-07 01:42:00,47.0,26.0,29.71,SSE,155,3.0,8.0,45,-99.99,,,0.00,,2013-04-07 08:42:00,
2013-04-07 02:12:00,51.0,27.0,29.68,South,191,14.0,14.0,39,-99.99,,,0.00,,2013-04-07 09:12:00,
2013-04-07 02:22:00,54.0,27.0,29.66,South,186,7.0,14.0,35,-99.99,,,0.00,,2013-04-07 09:22:00,
2013-04-07 02:33:00,48.0,26.0,29.69,South,186,5.0,14.0,42,-99.99,,,0.00,,2013-04-07 09:33:00,
2013-04-07 02:43:00,48.0,26.0,29.69,South,186,5.0,14.0,42,-99.99,,,0.00,,2013-04-07 09:43:00,
2013-04-07 02:53:00,47.0,26.0,29.68,South,186,4.0,6.0,44,-99.99,,,0.00,,2013-04-07 09:53:00,
2013-04-07 03:03:00,48.0,26.0,29.67,South,186,3.0,6.0,43,-99.99,,,0.00,,2013-04-07 10:03:00,
2013-04-07 03:22:00,49.0,26.0,29.67,South,189,4.0,9.0,40,-99.99,,,0.00,,2013-04-07 10:22:00,
2013-04-07 03:32:00,52.0,26.0,29.63,SW,236,11.0,18.0,37,-99.99,,,0.00,,2013-04-07 10:32:00,
2013-04-07 03:53:00,52.0,26.0,29.64,SW,234,14.0,18.0,37,-99.99,,,0.00,,2013-04-07 10:53:00,
2013-04-07 04:02:00,52.0,26.0,29.65,WSW,238,11.0,18.0,37,-99.99,,,0.00,,2013-04-07 11:02:00,
2013-04-07 04:22:00,52.0,26.0,29.65,WSW,241,10.0,16.0,37,-99.99,,,0.00,,2013-04-07 11:22:00,
2013-04-07 04:32:00,51.0,26.0,29.67,WSW,245,10.0,16.0,37,-99.99,,,0.00,,2013-04-07 11:32:00,
2013-04-07 04:53:00,51.0,26.0,29.68,WSW,244,10.0,16.0,38,-99.99,,,0.00,,2013-04-07 11:53:00,
2013-04-07 05:02:00,51.0,25.0,29.69,WSW,245,5.0,16.0,37,-99.99,,,0.00,,2013-04-07 12:02:00,
2013-04-07 05:22:00,51.0,25.0,29.68,WSW,249,5.0,13.0,36,-99.99,,,0.00,,2013-04-07 12:22:00,
2013-04-07 05:33:00,45.0,25.0,29.73,WSW,248,7.0,13.0,45,-99.99,,,0.00,,2013-04-07 12:33:00,
2013-04-07 05:53:00,45.0,25.0,29.75,WSW,240,7.0,9.0,44,-99.99,,,0.00,,2013-04-07 12:53:00,
2013-04-07 06:02:00,44.0,24.0,29.75,SW,236,4.0,9.0,45,-99.99,,,0.00,,2013-04-07 13:02:00,
2013-04-07 06:12:00,44.0,24.0,29.75,SW,236,4.0,9.0,45,-99.99,,,0.00,,2013-04-07 13:12:00,
2013-04-07 06:22:00,45.0,24.0,29.75,SW,234,0.0,8.0,44,-99.99,,,0.00,,2013-04-07 13:22:00,
2013-04-07 06:32:00,43.0,24.0,29.75,SW,234,0.0,8.0,46,-99.99,,,0.00,,2013-04-07 13:32:00,
2013-04-07 06:52:00,42.0,23.0,29.79,SW,234,2.0,4.0,47,-99.99,,,0.00,,2013-04-07 13:52:00,
2013-04-07 07:02:00,41.0,24.0,29.80,SW,234,1.0,4.0,50,-99.99,,,0.00,,2013-04-07 14:02:00,
2013-04-07 07:12:00,41.0,24.0,29.80,SW,234,1.0,4.0,50,-99.99,,,0.00,,2013-04-07 14:12:00,
2013-04-07 07:22:00,42.0,24.0,29.81,WSW,238,0.0,7.0,49,-99.99,,,0.00,,2013-04-07 14:22:00,
2013-04-07 07:32:00,43.0,26.0,29.79,SW,235,0.0,7.0,50,-99.99,,,0.00,,2013-04-07 14:32:00,
2013-04-07 07:43:00,43.0,26.0,29.79,SW,235,0.0,7.0,50,-99.99,,,0.00,,2013-04-07 14:43:00,
2013-04-07 07:53:00,45.0,27.0,29.80,SW,235,1.0,5.0,49,-99.99,,,-99.99,,2013-04-07 14:53:00,
2013-04-07 08:02:00,48.0,27.0,29.79,SW,235,1.0,5.0,44,-99.99,,,0.00,,2013-04-07 15:02:00,
2013-04-07 08:22:00,51.0,27.0,29.76,SW,234,2.0,3.0,40,-99.99,,,0.00,,2013-04-07 15:22:00,
2013-04-07 08:33:00,53.0,28.0,29.74,SW,234,0.0,3.0,38,-99.99,,,0.00,,2013-04-07 15:33:00,
2013-04-07 08:43:00,53.0,28.0,29.74,SW,234,0.0,3.0,38,-99.99,,,0.00,,2013-04-07 15:43:00,
2013-04-07 08:54:00,55.0,28.0,29.75,SW,235,2.0,4.0,35,-99.99,,,0.00,,2013-04-07 15:54:00,
2013-04-07 09:03:00,57.0,27.0,29.74,South,182,10.0,13.0,31,-99.99,,,0.00,,2013-04-07 16:03:00,
2013-04-07 09:13:00,57.0,27.0,29.74,South,182,10.0,13.0,31,-99.99,,,0.00,,2013-04-07 16:13:00,
2013-04-07 09:23:00,57.0,27.0,29.74,South,170,6.0,14.0,31,-99.99,,,0.00,,2013-04-07 16:23:00,
2013-04-07 09:32:00,57.0,27.0,29.74,South,170,6.0,14.0,31,-99.99,,,0.00,,2013-04-07 16:32:00,
2013-04-07 09:42:00,58.0,27.0,29.74,SSE,163,9.0,16.0,31,-99.99,,,0.00,,2013-04-07 16:42:00,
2013-04-07 09:54:00,58.0,25.0,29.71,South,175,6.0,15.0,28,-99.99,,,0.00,,2013-04-07 16:54:00,
2013-04-07 10:00:00,59.0,27.0,29.73,South,187,12.0,18.0,29,-99.99,,,0.00,,2013-04-07 17:00:00,
2013-04-07 10:03:00,59.0,26.0,29.72,South,180,4.0,18.0,28,-99.99,,,0.00,,2013-04-07 17:03:00,
2013-04-07 10:12:00,59.0,26.0,29.72,South,180,4.0,18.0,28,-99.99,,,0.00,,2013-04-07 17:12:00,
2013-04-07 10:22:00,59.0,27.0,29.72,South,169,16.0,18.0,29,-99.99,,,0.00,,2013-04-07 17:22:00,
2013-04-07 10:32:00,59.0,27.0,29.72,South,169,16.0,18.0,29,-99.99,,,0.00,,2013-04-07 17:32:00,
2013-04-07 10:42:00,59.0,27.0,29.73,South,187,12.0,18.0,29,-99.99,,,0.00,,2013-04-07 17:42:00,
2013-04-07 10:53:00,59.0,27.0,29.73,South,187,12.0,18.0,29,-99.99,,,0.00,,2013-04-07 17:53:00,
2013-04-07 11:13:00,59.0,28.0,29.72,SSE,161,15.0,22.0,30,-99.99,,,0.00,,2013-04-07 18:13:00,
2013-04-07 11:22:00,60.0,28.0,29.72,South,171,9.0,21.0,29,-99.99,,,0.00,,2013-04-07 18:22:00,
2013-04-07 11:32:00,62.0,28.0,29.70,South,188,13.0,21.0,28,-99.99,,,0.00,,2013-04-07 18:32:00,
2013-04-07 11:42:00,62.0,28.0,29.70,South,188,13.0,21.0,28,-99.99,,,0.00,,2013-04-07 18:42:00,
2013-04-07 11:52:00,62.0,26.0,29.69,SSW,202,14.0,20.0,25,-99.99,,,0.00,,2013-04-07 18:52:00,
2013-04-07 12:02:00,62.0,26.0,29.69,SSW,202,14.0,20.0,25,-99.99,,,0.00,,2013-04-07 19:02:00,
2013-04-07 12:12:00,63.0,26.0,29.68,SW,229,20.0,24.0,25,-99.99,,,0.00,,2013-04-07 19:12:00,
2013-04-07 12:22:00,63.0,26.0,29.67,SSW,200,16.0,25.0,24,-99.99,,,0.00,,2013-04-07 19:22:00,
2013-04-07 12:32:00,63.0,26.0,29.67,SSW,200,16.0,25.0,24,-99.99,,,0.00,,2013-04-07 19:32:00,
2013-04-07 12:42:00,63.0,26.0,29.67,SSW,200,16.0,25.0,24,-99.99,,,0.00,,2013-04-07 19:42:00,
2013-04-07 12:54:00,62.0,30.0,29.68,SSW,202,11.0,24.0,29,-99.99,,,0.00,,2013-04-07 19:54:00,
2013-04-07 13:00:00,63.0,27.0,29.67,SW,218,17.0,29.0,26,-99.99,,,0.00,,2013-04-07 20:00:00,
2013-04-07 13:02:00,62.0,30.0,29.68,SSW,202,11.0,24.0,29,-99.99,,,0.00,,2013-04-07 20:02:00,
2013-04-07 13:12:00,63.0,30.0,29.67,SW,219,12.0,30.0,29,-99.99,,,0.00,,2013-04-07 20:12:00,
2013-04-07 13:22:00,63.0,29.0,29.67,SW,225,12.0,29.0,27,-99.99,,,0.00,,2013-04-07 20:22:00,
2013-04-07 13:32:00,63.0,27.0,29.67,SW,218,17.0,29.0,26,-99.99,,,0.00,,2013-04-07 20:32:00,
2013-04-07 13:42:00,63.0,27.0,29.67,SW,218,17.0,29.0,26,-99.99,,,0.00,,2013-04-07 20:42:00,
2013-04-07 13:53:00,63.0,27.0,29.67,SW,218,17.0,29.0,26,-99.99,,,0.00,,2013-04-07 20:53:00,
2013-04-07 14:22:00,63.0,26.0,29.66,South,185,11.0,21.0,24,-99.99,,,0.00,,2013-04-07 21:22:00,
2013-04-07 14:30:00,64.0,24.0,29.60,West,261,9.0,29.0,22,-99.99,,,0.00,,2013-04-07 21:30:00,
2013-04-07 14:33:00,63.0,26.0,29.66,South,185,11.0,21.0,24,-99.99,,,0.00,,2013-04-07 21:33:00,
2013-04-07 14:43:00,63.0,27.0,29.65,SW,219,18.0,24.0,25,-99.99,,,0.00,,2013-04-07 21:43:00,
2013-04-07 14:54:00,64.0,27.0,29.60,WSW,245,16.0,27.0,24,-99.99,,,0.00,,2013-04-07 21:54:00,
2013-04-07 15:03:00,64.0,24.0,29.60,West,261,9.0,29.0,22,-99.99,,,0.00,,2013-04-07 22:03:00,
2013-04-07 15:13:00,64.0,24.0,29.60,West,261,9.0,29.0,22,-99.99,,,0.00,,2013-04-07 22:13:00,
2013-04-07 15:23:00,64.0,24.0,29.60,West,261,9.0,29.0,22,-99.99,,,0.00,,2013-04-07 22:23:00,
2013-04-07 15:43:00,65.0,27.0,29.58,SW,228,22.0,28.0,24,-99.99,,,0.00,,2013-04-07 22:43:00,
2013-04-07 15:53:00,65.0,27.0,29.58,SSW,203,12.0,31.0,24,-99.99,,,0.00,,2013-04-07 22:53:00,
2013-04-07 16:03:00,65.0,27.0,29.58,SSW,203,12.0,31.0,24,-99.99,,,0.00,,2013-04-07 23:03:00,
2013-04-07 16:12:00,64.0,27.0,29.58,SW,226,15.0,31.0,24,-99.99,,,0.00,,2013-04-07 23:12:00,
2013-04-07 16:22:00,64.0,28.0,29.57,SW,234,14.0,31.0,25,-99.99,,,0.00,,2013-04-07 23:22:00,
2013-04-07 16:32:00,63.0,28.0,29.58,SSW,213,14.0,31.0,26,-99.99,,,0.00,,2013-04-07 23:32:00,
2013-04-07 16:42:00,63.0,28.0,29.58,SSW,213,14.0,31.0,26,-99.99,,,0.00,,2013-04-07 23:42:00,
2013-04-07 16:52:00,63.0,28.0,29.58,SSW,213,14.0,31.0,26,-99.99,,,0.00,,2013-04-07 23:52:00,
2013-04-07 17:02:00,63.0,27.0,29.62,SW,223,18.0,31.0,26,-99.99,,,0.00,,2013-04-08 00:02:00,
2013-04-07 17:12:00,63.0,27.0,29.62,SW,223,18.0,31.0,26,-99.99,,,0.00,,2013-04-08 00:12:00,
2013-04-07 17:22:00,62.0,28.0,29.63,South,182,9.0,33.0,27,-99.99,,,0.00,,2013-04-08 00:22:00,
2013-04-07 17:32:00,62.0,28.0,29.63,South,182,9.0,33.0,27,-99.99,,,0.00,,2013-04-08 00:32:00,
2013-04-07 17:42:00,61.0,28.0,29.63,SSW,195,30.0,33.0,28,-99.99,,,0.00,,2013-04-08 00:42:00,
2013-04-07 17:52:00,61.0,28.0,29.65,SW,232,16.0,33.0,28,-99.99,,,0.00,,2013-04-08 00:52:00,
2013-04-07 18:02:00,61.0,28.0,29.65,SW,232,16.0,33.0,28,-99.99,,,0.00,,2013-04-08 01:02:00,
2013-04-07 18:12:00,61.0,28.0,29.65,SW,232,16.0,33.0,28,-99.99,,,0.00,,2013-04-08 01:12:00,
2013-04-07 18:22:00,60.0,28.0,29.64,SW,221,14.0,24.0,30,-99.99,,,0.00,,2013-04-08 01:22:00,
2013-04-07 18:33:00,59.0,28.0,29.66,SW,225,12.0,30.0,30,-99.99,,,0.00,,2013-04-08 01:33:00,
2013-04-07 18:42:00,59.0,28.0,29.66,SW,225,12.0,30.0,30,-99.99,,,0.00,,2013-04-08 01:42:00,
2013-04-07 18:54:00,59.0,28.0,29.66,SSW,209,14.0,19.0,31,-99.99,,,0.00,,2013-04-08 01:54:00,
2013-04-07 19:02:00,59.0,28.0,29.66,SSW,209,14.0,19.0,31,-99.99,,,0.00,,2013-04-08 02:02:00,
2013-04-07 19:12:00,59.0,28.0,29.66,SSW,209,14.0,19.0,31,-99.99,,,0.00,,2013-04-08 02:12:00,
2013-04-07 19:22:00,58.0,28.0,29.65,SSW,200,5.0,22.0,32,-99.99,,,0.00,,2013-04-08 02:22:00,
2013-04-07 19:33:00,58.0,28.0,29.65,SSW,200,5.0,22.0,32,-99.99,,,0.00,,2013-04-08 02:33:00,
2013-04-07 19:45:00,57.0,28.0,29.65,South,188,4.0,22.0,33,-99.99,,,-99.99,,2013-04-08 02:45:00,
2013-04-07 19:52:00,57.0,28.0,29.65,South,188,4.0,22.0,33,-99.99,,,-99.99,,2013-04-08 02:52:00,
2013-04-07 20:23:00,54.0,27.0,29.61,ENE,69,0.0,12.0,35,-99.99,,,0.00,,2013-04-08 03:23:00,
2013-04-07 20:33:00,54.0,27.0,29.61,ENE,69,0.0,12.0,35,-99.99,,,0.00,,2013-04-08 03:33:00,
2013-04-07 21:23:00,52.0,27.0,29.59,SE,136,0.0,7.0,38,-99.99,,,0.00,,2013-04-08 04:23:00,
2013-04-07 21:33:00,52.0,27.0,29.59,SE,136,0.0,7.0,38,-99.99,,,0.00,,2013-04-08 04:33:00,
2013-04-07 21:43:00,51.0,27.0,29.58,SE,136,3.0,7.0,38,-99.99,,,0.00,,2013-04-08 04:43:00,
2013-04-07 21:52:00,50.0,26.0,29.58,ESE,123,4.0,9.0,39,-99.99,,,0.00,,2013-04-08 04:52:00,
2013-04-07 22:02:00,50.0,26.0,29.58,ESE,123,4.0,9.0,39,-99.99,,,0.00,,2013-04-08 05:02:00,
2013-04-07 22:12:00,50.0,26.0,29.58,ESE,123,4.0,9.0,39,-99.99,,,0.00,,2013-04-08 05:12:00,
2013-04-07 22:32:00,54.0,29.0,29.56,SW,234,16.0,30.0,38,-99.99,,,0.00,,2013-04-08 05:32:00,
2013-04-07 22:42:00,54.0,29.0,29.56,SW,234,16.0,30.0,38,-99.99,,,0.00,,2013-04-08 05:42:00,
2013-04-07 22:52:00,54.0,28.0,29.54,SW,234,12.0,26.0,37,-99.99,,,0.00,,2013-04-08 05:52:00,
2013-04-07 23:02:00,54.0,28.0,29.54,SW,234,12.0,26.0,37,-99.99,,,0.00,,2013-04-08 06:02:00,
2013-04-07 23:12:00,54.0,28.0,29.54,SSW,210,7.0,27.0,37,-99.99,,,0.00,,2013-04-08 06:12:00,
2013-04-07 23:22:00,54.0,28.0,29.52,WSW,238,11.0,24.0,37,-99.99,,,0.00,,2013-04-08 06:22:00,
2013-04-07 23:32:00,54.0,28.0,29.52,WSW,238,11.0,24.0,37,-99.99,,,0.00,,2013-04-08 06:32:00,
2013-04-07 23:42:00,54.0,28.0,29.52,WSW,238,11.0,24.0,37,-99.99,,,0.00,,2013-04-08 06:42:00,